createdAt,value
2023-02-05T00:00:07.174Z,65.55
2023-02-05T00:01:07.292Z,62.35
2023-02-05T00:02:07.029Z,62.38
2023-02-05T00:03:06.901Z,65.09
2023-02-05T00:04:07.039Z,63.13
2023-02-05T00:05:06.891Z,65.43
2023-02-05T00:06:06.966Z,65.43
2023-02-05T00:07:06.924Z,63.65
2023-02-05T00:08:07.053Z,64.70
2023-02-05T00:09:06.950Z,65.22
2023-02-05T00:10:07.139Z,67.17
2023-02-05T00:11:06.841Z,63.84
2023-02-05T00:12:06.892Z,64.46
2023-02-05T00:13:06.911Z,65.19
2023-02-05T00:14:07.002Z,62.72
2023-02-05T00:15:06.811Z,64.39
2023-02-05T00:16:06.973Z,66.36
2023-02-05T00:17:06.974Z,66.05
2023-02-05T00:18:06.711Z,65.04
2023-02-05T00:19:06.992Z,65.56
2023-02-05T00:20:06.701Z,65.46
2023-02-05T00:21:06.924Z,66.39
2023-02-05T00:22:06.717Z,67.65
2023-02-05T00:23:06.943Z,67.02
2023-02-05T00:24:06.632Z,66.89
2023-02-05T00:25:06.851Z,66.99
2023-02-05T00:26:06.594Z,65.22
2023-02-05T00:27:06.763Z,66.99
2023-02-05T00:28:06.652Z,66.36
2023-02-05T00:29:06.909Z,66.16
2023-02-05T00:30:06.820Z,66.05
2023-02-05T00:31:06.820Z,65.92
2023-02-05T00:32:06.713Z,65.09
2023-02-05T00:33:06.506Z,64.46
2023-02-05T00:34:06.621Z,65.53
2023-02-05T00:35:06.602Z,66.26
2023-02-05T00:36:06.725Z,65.33
2023-02-05T00:37:06.486Z,65.11
2023-02-05T00:38:06.653Z,67.20
2023-02-05T00:39:06.582Z,66.57
2023-02-05T00:40:06.711Z,64.90
2023-02-05T00:41:06.521Z,65.22
2023-02-05T00:42:06.582Z,69.81
2023-02-05T00:43:06.511Z,65.40
2023-02-05T00:44:06.694Z,66.44
2023-02-05T00:45:06.613Z,66.02
2023-02-05T00:46:06.810Z,65.09
2023-02-05T00:47:06.619Z,64.25
2023-02-05T00:48:06.739Z,65.92
2023-02-05T00:49:06.491Z,67.97
2023-02-05T00:50:06.334Z,65.16
2023-02-05T00:51:06.483Z,65.78
2023-02-05T00:52:06.354Z,66.51
2023-02-05T00:53:06.482Z,66.93
2023-02-05T00:54:06.308Z,65.99
2023-02-05T00:55:06.493Z,64.04
2023-02-05T00:56:06.312Z,64.87
2023-02-05T00:57:06.452Z,67.38
2023-02-05T00:58:07.371Z,66.02
2023-02-05T00:59:06.543Z,64.67
2023-02-05T01:00:06.351Z,64.39
2023-02-05T01:01:06.597Z,67.10
2023-02-05T01:02:06.395Z,64.28
2023-02-05T01:03:06.425Z,66.36
2023-02-05T01:04:06.513Z,64.07
2023-02-05T01:05:06.274Z,64.11
2023-02-05T01:06:06.295Z,64.83
2023-02-05T01:07:06.295Z,65.38
2023-02-05T01:08:06.416Z,65.48
2023-02-05T01:09:06.154Z,66.85
2023-02-05T01:10:06.399Z,66.42
2023-02-05T01:11:06.308Z,65.91
2023-02-05T01:12:06.309Z,67.54
2023-02-05T01:13:06.168Z,67.96
2023-02-05T01:14:06.430Z,66.99
2023-02-05T01:15:06.177Z,64.52
2023-02-05T01:16:06.498Z,63.37
2023-02-05T01:17:06.197Z,65.59
2023-02-05T01:18:06.220Z,67.23
2023-02-05T01:19:06.168Z,65.88
2023-02-05T01:20:06.269Z,66.39
2023-02-05T01:21:06.145Z,67.54
2023-02-05T01:22:05.472Z,64.73
2023-02-05T01:23:06.388Z,64.86
2023-02-05T01:24:06.002Z,66.11
2023-02-05T01:25:06.168Z,67.02
2023-02-05T01:26:06.120Z,69.00
2023-02-05T01:27:06.317Z,66.92
2023-02-05T01:28:06.042Z,65.46
2023-02-05T01:29:06.229Z,67.54
2023-02-05T01:30:06.071Z,66.82
2023-02-05T01:31:06.206Z,66.85
2023-02-05T01:32:06.027Z,66.63
2023-02-05T01:33:06.240Z,67.78
2023-02-05T01:34:06.141Z,67.36
2023-02-05T01:35:06.090Z,71.01
2023-02-05T01:36:06.070Z,68.69
2023-02-05T01:37:05.858Z,65.67
2023-02-05T01:38:06.096Z,68.72
2023-02-05T01:39:06.036Z,69.24
2023-02-05T01:40:06.006Z,68.30
2023-02-05T01:41:05.812Z,68.10
2023-02-05T01:42:06.176Z,67.68
2023-02-05T01:43:05.916Z,70.78
2023-02-05T01:44:06.050Z,68.90
2023-02-05T01:45:05.916Z,67.61
2023-02-05T01:46:06.017Z,67.20
2023-02-05T01:47:05.833Z,65.95
2023-02-05T01:48:05.906Z,68.03
2023-02-05T01:49:06.575Z,67.93
2023-02-05T01:50:05.863Z,66.05
2023-02-05T01:51:05.892Z,67.44
2023-02-05T01:52:05.941Z,65.80
2023-02-05T01:53:05.871Z,67.74
2023-02-05T01:54:05.681Z,69.62
2023-02-05T01:55:05.871Z,71.39
2023-02-05T01:56:05.651Z,71.15
2023-02-05T01:57:05.892Z,67.81
2023-02-05T01:58:05.673Z,69.07
2023-02-05T01:59:06.798Z,70.94
2023-02-05T02:00:05.707Z,71.67
2023-02-05T02:01:05.794Z,69.10
2023-02-05T02:02:05.811Z,69.51
2023-02-05T02:03:05.788Z,70.38
2023-02-05T02:04:05.756Z,71.46
2023-02-05T02:05:05.757Z,71.77
2023-02-05T02:06:05.790Z,72.50
2023-02-05T02:07:05.810Z,72.81
2023-02-05T02:08:05.706Z,72.19
2023-02-05T02:09:05.680Z,73.27
2023-02-05T02:10:05.822Z,73.27
2023-02-05T02:11:05.595Z,73.96
2023-02-05T02:12:05.682Z,73.83
2023-02-05T02:13:06.420Z,73.52
2023-02-05T02:14:05.931Z,73.27
2023-02-05T02:15:05.580Z,72.54
2023-02-05T02:16:05.962Z,70.56
2023-02-05T02:17:05.577Z,71.08
2023-02-05T02:18:05.654Z,72.13
2023-02-05T02:19:06.545Z,71.01
2023-02-05T02:20:05.628Z,72.08
2023-02-05T02:21:05.491Z,74.87
2023-02-05T02:22:05.604Z,72.85
2023-02-05T02:23:05.602Z,71.29
2023-02-05T02:24:05.430Z,71.22
2023-02-05T02:25:05.592Z,73.83
2023-02-05T02:26:05.352Z,71.11
2023-02-05T02:27:05.584Z,72.16
2023-02-05T02:28:05.384Z,73.10
2023-02-05T02:29:05.655Z,71.70
2023-02-05T02:30:05.494Z,71.19
2023-02-05T02:31:05.556Z,72.02
2023-02-05T02:32:05.361Z,70.04
2023-02-05T02:33:05.523Z,70.14
2023-02-05T02:34:05.454Z,69.86
2023-02-05T02:35:05.479Z,71.14
2023-02-05T02:36:05.411Z,72.78
2023-02-05T02:37:05.450Z,72.16
2023-02-05T02:38:05.370Z,71.53
2023-02-05T02:39:06.111Z,70.38
2023-02-05T02:40:05.430Z,70.56
2023-02-05T02:41:05.317Z,68.19
2023-02-05T02:42:05.445Z,69.96
2023-02-05T02:43:05.373Z,71.81
2023-02-05T02:44:05.370Z,70.56
2023-02-05T02:45:05.232Z,71.60
2023-02-05T02:46:05.404Z,69.38
2023-02-05T02:47:05.214Z,68.33
2023-02-05T02:48:05.404Z,66.59
2023-02-05T02:49:05.226Z,68.37
2023-02-05T02:50:05.324Z,68.16
2023-02-05T02:51:05.279Z,69.20
2023-02-05T02:52:05.432Z,71.91
2023-02-05T02:53:05.428Z,68.85
2023-02-05T02:54:05.296Z,66.59
2023-02-05T02:55:05.230Z,66.62
2023-02-05T02:56:05.107Z,68.29
2023-02-05T02:57:05.239Z,69.02
2023-02-05T02:58:05.127Z,69.13
2023-02-05T02:59:05.349Z,69.31
2023-02-05T03:00:05.018Z,68.26
2023-02-05T03:01:05.300Z,70.14
2023-02-05T03:02:05.160Z,68.13
2023-02-05T03:03:05.281Z,67.53
2023-02-05T03:04:05.037Z,68.54
2023-02-05T03:05:05.170Z,67.81
2023-02-05T03:06:05.229Z,66.25
2023-02-05T03:07:05.198Z,63.43
2023-02-05T03:08:05.163Z,64.40
2023-02-05T03:09:05.224Z,66.38
2023-02-05T03:10:05.138Z,66.07
2023-02-05T03:11:05.162Z,65.86
2023-02-05T03:12:05.182Z,63.67
2023-02-05T03:13:04.949Z,65.23
2023-02-05T03:14:05.162Z,64.40
2023-02-05T03:15:04.941Z,62.94
2023-02-05T03:16:05.068Z,65.65
2023-02-05T03:17:04.950Z,62.84
2023-02-05T03:18:05.120Z,65.75
2023-02-05T03:19:04.930Z,64.61
2023-02-05T03:20:05.279Z,65.44
2023-02-05T03:21:05.005Z,63.98
2023-02-05T03:22:04.959Z,63.67
2023-02-05T03:23:04.879Z,62.52
2023-02-05T03:24:05.159Z,63.56
2023-02-05T03:25:04.899Z,62.73
2023-02-05T03:26:05.034Z,63.04
2023-02-05T03:27:04.979Z,62.52
2023-02-05T03:28:04.959Z,63.56
2023-02-05T03:29:04.949Z,64.58
2023-02-05T03:30:04.718Z,60.51
2023-02-05T03:31:05.143Z,61.03
2023-02-05T03:32:04.825Z,61.97
2023-02-05T03:33:05.029Z,62.70
2023-02-05T03:34:04.809Z,61.35
2023-02-05T03:35:04.922Z,61.94
2023-02-05T03:36:04.857Z,62.88
2023-02-05T03:37:04.839Z,60.69
2023-02-05T03:38:04.751Z,61.45
2023-02-05T03:39:04.929Z,62.18
2023-02-05T03:40:04.699Z,62.15
2023-02-05T03:41:04.819Z,62.46
2023-02-05T03:42:04.798Z,62.57
2023-02-05T03:43:04.848Z,62.43
2023-02-05T03:44:04.807Z,63.89
2023-02-05T03:45:04.539Z,64.70
2023-02-05T03:46:04.811Z,59.91
2023-02-05T03:47:05.309Z,59.39
2023-02-05T03:48:04.905Z,58.79
2023-02-05T03:49:04.610Z,60.77
2023-02-05T03:50:04.759Z,59.72
2023-02-05T03:51:04.719Z,62.67
2023-02-05T03:52:04.738Z,60.17
2023-02-05T03:53:04.670Z,59.47
2023-02-05T03:54:04.790Z,60.10
2023-02-05T03:55:04.587Z,60.51
2023-02-05T03:56:04.655Z,61.24
2023-02-05T03:57:04.569Z,61.97
2023-02-05T03:58:04.757Z,61.76
2023-02-05T03:59:04.586Z,62.00
2023-02-05T04:00:04.484Z,60.75
2023-02-05T04:01:04.533Z,63.04
2023-02-05T04:02:04.430Z,61.69
2023-02-05T04:03:04.525Z,63.04
2023-02-05T04:04:04.433Z,62.41
2023-02-05T04:05:04.563Z,62.10
2023-02-05T04:06:04.495Z,62.39
2023-02-05T04:07:04.532Z,62.00
2023-02-05T04:08:04.446Z,62.21
2023-02-05T04:09:04.524Z,62.94
2023-02-05T04:10:04.623Z,61.58
2023-02-05T04:11:04.611Z,61.58
2023-02-05T04:12:04.412Z,62.10
2023-02-05T04:13:04.551Z,61.58
2023-02-05T04:14:04.462Z,63.95
2023-02-05T04:15:04.580Z,61.76
2023-02-05T04:16:04.542Z,60.82
2023-02-05T04:17:04.349Z,61.24
2023-02-05T04:18:04.770Z,62.18
2023-02-05T04:19:04.232Z,61.97
2023-02-05T04:20:04.449Z,60.22
2023-02-05T04:21:04.211Z,60.85
2023-02-05T04:22:04.381Z,61.79
2023-02-05T04:23:04.342Z,62.10
2023-02-05T04:24:04.355Z,61.71
2023-02-05T04:25:04.234Z,63.07
2023-02-05T04:26:04.479Z,63.18
2023-02-05T04:27:04.374Z,62.65
2023-02-05T04:28:04.540Z,63.93
2023-02-05T04:29:04.283Z,63.49
2023-02-05T04:30:04.453Z,65.26
2023-02-05T04:31:04.251Z,65.37
2023-02-05T04:32:04.143Z,62.55
2023-02-05T04:33:04.403Z,63.39
2023-02-05T04:34:04.263Z,64.74
2023-02-05T04:35:04.373Z,62.41
2023-02-05T04:36:04.043Z,63.25
2023-02-05T04:37:04.275Z,64.50
2023-02-05T04:38:04.134Z,62.10
2023-02-05T04:39:04.265Z,62.10
2023-02-05T04:40:04.086Z,61.08
2023-02-05T04:41:04.258Z,61.46
2023-02-05T04:42:04.247Z,64.80
2023-02-05T04:43:04.204Z,64.13
2023-02-05T04:44:04.135Z,65.17
2023-02-05T04:45:04.376Z,68.97
2023-02-05T04:46:04.216Z,70.02
2023-02-05T04:47:04.195Z,71.24
2023-02-05T04:48:04.076Z,69.39
2023-02-05T04:49:03.976Z,68.87
2023-02-05T04:50:04.256Z,68.87
2023-02-05T04:51:04.130Z,70.23
2023-02-05T04:52:04.177Z,68.16
2023-02-05T04:53:04.041Z,70.08
2023-02-05T04:54:04.045Z,68.02
2023-02-05T04:55:03.987Z,68.89
2023-02-05T04:56:04.128Z,68.99
2023-02-05T04:57:03.988Z,70.67
2023-02-05T04:58:04.015Z,69.17
2023-02-05T04:59:03.986Z,67.91
2023-02-05T05:00:04.005Z,67.63
2023-02-05T05:01:04.164Z,69.20
2023-02-05T05:02:04.196Z,70.36
2023-02-05T05:03:03.938Z,71.72
2023-02-05T05:04:03.738Z,70.81
2023-02-05T05:05:03.956Z,69.90
2023-02-05T05:06:03.817Z,69.90
2023-02-05T05:07:03.945Z,70.15
2023-02-05T05:08:03.915Z,74.41
2023-02-05T05:09:03.956Z,70.61
2023-02-05T05:10:03.716Z,70.81
2023-02-05T05:11:03.950Z,69.73
2023-02-05T05:12:03.777Z,71.69
2023-02-05T05:13:03.916Z,71.48
2023-02-05T05:14:03.841Z,71.58
2023-02-05T05:15:03.974Z,73.22
2023-02-05T05:16:03.809Z,72.31
2023-02-05T05:17:03.840Z,71.76
2023-02-05T05:18:03.782Z,69.77
2023-02-05T05:19:03.836Z,68.47
2023-02-05T05:20:03.795Z,73.50
2023-02-05T05:21:03.686Z,72.34
2023-02-05T05:22:03.728Z,72.34
2023-02-05T05:23:03.666Z,70.78
2023-02-05T05:24:03.756Z,72.45
2023-02-05T05:25:03.657Z,70.67
2023-02-05T05:26:03.909Z,72.24
2023-02-05T05:27:03.666Z,72.42
2023-02-05T05:28:03.943Z,71.34
2023-02-05T05:29:03.607Z,69.59
2023-02-05T05:30:03.776Z,71.44
2023-02-05T05:31:03.815Z,68.19
2023-02-05T05:32:03.834Z,67.39
2023-02-05T05:33:03.649Z,68.65
2023-02-05T05:34:03.817Z,69.80
2023-02-05T05:35:03.736Z,71.48
2023-02-05T05:36:03.468Z,69.48
2023-02-05T05:37:03.641Z,71.37
2023-02-05T05:38:03.518Z,70.18
2023-02-05T05:39:03.677Z,69.77
2023-02-05T05:40:03.406Z,69.14
2023-02-05T05:41:03.590Z,67.21
2023-02-05T05:42:03.487Z,68.57
2023-02-05T05:43:03.598Z,73.08
2023-02-05T05:44:03.487Z,69.80
2023-02-05T05:45:03.590Z,70.01
2023-02-05T05:46:03.559Z,69.07
2023-02-05T05:47:03.588Z,71.23
2023-02-05T05:48:03.427Z,69.04
2023-02-05T05:49:03.544Z,68.02
2023-02-05T05:50:03.583Z,67.74
2023-02-05T05:51:03.459Z,69.55
2023-02-05T05:52:03.493Z,70.53
2023-02-05T05:53:03.251Z,71.50
2023-02-05T05:54:03.451Z,73.92
2023-02-05T05:55:03.258Z,74.62
2023-02-05T05:56:03.456Z,74.16
2023-02-05T05:57:03.276Z,74.34
2023-02-05T05:58:03.504Z,73.79
2023-02-05T05:59:03.347Z,69.90
2023-02-05T06:00:03.603Z,70.32
2023-02-05T06:01:03.289Z,68.68
2023-02-05T06:02:03.363Z,71.61
2023-02-05T06:03:03.267Z,71.26
2023-02-05T06:04:04.323Z,71.06
2023-02-05T06:05:03.274Z,70.18
2023-02-05T06:06:03.312Z,71.31
2023-02-05T06:07:03.273Z,69.74
2023-02-05T06:08:03.105Z,68.03
2023-02-05T06:09:03.336Z,67.12
2023-02-05T06:10:03.113Z,68.69
2023-02-05T06:11:03.254Z,67.33
2023-02-05T06:12:03.131Z,68.90
2023-02-05T06:13:03.351Z,67.02
2023-02-05T06:14:03.163Z,65.84
2023-02-05T06:15:03.346Z,68.21
2023-02-05T06:16:03.304Z,69.82
2023-02-05T06:17:03.272Z,72.03
2023-02-05T06:18:03.349Z,72.58
2023-02-05T06:19:03.242Z,71.56
2023-02-05T06:20:03.163Z,74.96
2023-02-05T06:21:03.199Z,75.18
2023-02-05T06:22:03.302Z,73.92
2023-02-05T06:23:03.123Z,73.78
2023-02-05T06:24:03.343Z,72.14
2023-02-05T06:25:02.989Z,70.50
2023-02-05T06:26:03.120Z,70.91
2023-02-05T06:27:03.003Z,70.73
2023-02-05T06:28:03.243Z,71.47
2023-02-05T06:29:03.449Z,72.91
2023-02-05T06:30:03.139Z,74.24
2023-02-05T06:31:03.115Z,71.09
2023-02-05T06:32:03.290Z,71.83
2023-02-05T06:33:03.031Z,70.88
2023-02-05T06:34:03.031Z,69.73
2023-02-05T06:35:02.974Z,70.88
2023-02-05T06:36:03.142Z,69.97
2023-02-05T06:37:02.968Z,73.08
2023-02-05T06:38:03.011Z,71.86
2023-02-05T06:39:03.203Z,67.18
2023-02-05T06:40:02.782Z,68.60
2023-02-05T06:41:03.004Z,69.51
2023-02-05T06:42:02.836Z,71.22
2023-02-05T06:43:02.954Z,72.80
2023-02-05T06:44:02.822Z,72.80
2023-02-05T06:45:02.993Z,71.85
2023-02-05T06:46:02.926Z,73.32
2023-02-05T06:47:02.961Z,72.30
2023-02-05T06:48:02.864Z,74.33
2023-02-05T06:49:03.130Z,74.22
2023-02-05T06:50:02.774Z,75.63
2023-02-05T06:51:02.918Z,73.28
2023-02-05T06:52:03.143Z,73.36
2023-02-05T06:53:02.892Z,71.26
2023-02-05T06:54:02.822Z,71.95
2023-02-05T06:55:02.665Z,72.16
2023-02-05T06:56:02.889Z,71.78
2023-02-05T06:57:02.613Z,72.86
2023-02-05T06:58:02.802Z,76.19
2023-02-05T06:59:02.782Z,74.02
2023-02-05T07:00:02.754Z,73.92
2023-02-05T07:01:02.724Z,73.04
2023-02-05T07:02:02.889Z,73.54
2023-02-05T07:03:02.679Z,71.47
2023-02-05T07:04:02.768Z,72.94
2023-02-05T07:05:02.616Z,72.41
2023-02-05T07:06:02.744Z,72.83
2023-02-05T07:07:02.659Z,71.08
2023-02-05T07:08:02.767Z,73.28
2023-02-05T07:09:02.618Z,75.35
2023-02-05T07:10:02.711Z,72.10
2023-02-05T07:11:02.609Z,73.04
2023-02-05T07:12:02.461Z,73.25
2023-02-05T07:13:03.996Z,71.89
2023-02-05T07:14:02.500Z,73.22
2023-02-05T07:15:02.835Z,71.83
2023-02-05T07:16:02.739Z,71.23
2023-02-05T07:17:02.692Z,73.22
2023-02-05T07:18:02.451Z,71.20
2023-02-05T07:19:02.677Z,70.91
2023-02-05T07:20:02.530Z,72.17
2023-02-05T07:21:02.598Z,72.14
2023-02-05T07:22:02.509Z,71.51
2023-02-05T07:23:03.003Z,71.41
2023-02-05T07:24:02.504Z,72.03
2023-02-05T07:25:04.408Z,74.02
2023-02-05T07:26:02.510Z,72.91
2023-02-05T07:27:02.293Z,70.18
2023-02-05T07:28:02.563Z,70.92
2023-02-05T07:29:02.323Z,71.51
2023-02-05T07:30:02.499Z,70.47
2023-02-05T07:31:02.457Z,72.46
2023-02-05T07:32:02.588Z,71.28
2023-02-05T07:33:02.359Z,70.09
2023-02-05T07:34:02.520Z,69.95
2023-02-05T07:35:02.310Z,68.60
2023-02-05T07:36:02.426Z,70.97
2023-02-05T07:37:02.721Z,68.25
2023-02-05T07:38:02.657Z,65.36
2023-02-05T07:39:02.346Z,67.86
2023-02-05T07:40:02.418Z,67.44
2023-02-05T07:41:02.646Z,67.06
2023-02-05T07:42:02.170Z,67.68
2023-02-05T07:43:02.325Z,67.37
2023-02-05T07:44:02.261Z,68.73
2023-02-05T07:45:02.358Z,66.85
2023-02-05T07:46:02.136Z,66.99
2023-02-05T07:47:02.330Z,68.13
2023-02-05T07:48:02.153Z,68.41
2023-02-05T07:49:02.342Z,69.54
2023-02-05T07:50:02.193Z,70.13
2023-02-05T07:51:02.249Z,69.58
2023-02-05T07:52:02.235Z,68.40
2023-02-05T07:53:02.489Z,67.01
2023-02-05T07:54:02.119Z,65.68
2023-02-05T07:55:02.299Z,66.49
2023-02-05T07:56:02.093Z,65.23
2023-02-05T07:57:02.396Z,63.18
2023-02-05T07:58:02.125Z,64.04
2023-02-05T07:59:02.013Z,65.01
2023-02-05T08:00:02.175Z,69.13
2023-02-05T08:01:02.179Z,66.72
2023-02-05T08:02:02.364Z,65.34
2023-02-05T08:03:02.130Z,65.55
2023-02-05T08:04:02.223Z,63.88
2023-02-05T08:05:02.044Z,66.91
2023-02-05T08:06:02.094Z,65.48
2023-02-05T08:07:01.961Z,65.50
2023-02-05T08:08:02.221Z,61.92
2023-02-05T08:09:01.971Z,56.34
2023-02-05T08:10:02.113Z,53.21
2023-02-05T08:11:02.060Z,49.84
2023-02-05T08:12:02.083Z,46.94
2023-02-05T08:13:02.092Z,44.72
2023-02-05T08:14:01.943Z,41.58
2023-02-05T08:15:02.054Z,40.20
2023-02-05T08:16:01.828Z,40.51
2023-02-05T08:17:02.168Z,40.00
2023-02-05T08:18:01.844Z,39.84
2023-02-05T08:19:02.022Z,37.13
2023-02-05T08:20:01.792Z,36.21
2023-02-05T08:21:01.937Z,36.49
2023-02-05T08:22:01.937Z,33.73
2023-02-05T08:23:02.071Z,36.68
2023-02-05T08:24:01.841Z,35.20
2023-02-05T08:25:02.022Z,33.37
2023-02-05T08:26:01.794Z,35.49
2023-02-05T08:27:01.899Z,32.72
2023-02-05T08:28:01.919Z,34.42
2023-02-05T08:29:01.652Z,32.27
2023-02-05T08:30:01.987Z,32.15
2023-02-05T08:31:01.807Z,31.22
2023-02-05T08:32:01.865Z,31.03
2023-02-05T08:33:01.676Z,32.53
2023-02-05T08:34:01.899Z,31.31
2023-02-05T08:35:01.778Z,29.58
2023-02-05T08:36:02.834Z,31.32
2023-02-05T08:37:01.722Z,30.49
2023-02-05T08:38:01.959Z,30.11
2023-02-05T08:39:01.673Z,28.68
2023-02-05T08:40:01.805Z,30.61
2023-02-05T08:41:01.763Z,30.35
2023-02-05T08:42:01.797Z,31.98
2023-02-05T08:43:01.753Z,31.10
2023-02-05T08:44:01.854Z,29.57
2023-02-05T08:45:01.707Z,29.55
2023-02-05T08:46:01.526Z,27.65
2023-02-05T08:47:01.836Z,29.35
2023-02-05T08:48:01.575Z,28.41
2023-02-05T08:49:01.844Z,28.70
2023-02-05T08:50:01.523Z,27.70
2023-02-05T08:51:01.742Z,27.08
2023-02-05T08:52:01.622Z,25.58
2023-02-05T08:53:01.758Z,25.59
2023-02-05T08:54:01.593Z,26.10
2023-02-05T08:55:01.776Z,24.68
2023-02-05T08:56:01.562Z,28.45
2023-02-05T08:57:01.574Z,28.94
2023-02-05T08:58:01.625Z,28.22
2023-02-05T08:59:01.784Z,27.69
2023-02-05T09:00:01.638Z,27.29
2023-02-05T09:01:01.611Z,27.18
2023-02-05T09:02:01.702Z,27.57
2023-02-05T09:03:01.424Z,26.15
2023-02-05T09:04:01.764Z,26.04
2023-02-05T09:05:08.979Z,27.48
2023-02-05T09:06:01.912Z,28.60
2023-02-05T09:07:01.758Z,28.27
2023-02-05T09:08:01.904Z,25.63
2023-02-05T09:09:01.339Z,26.46
2023-02-05T09:10:01.590Z,25.13
2023-02-05T09:11:01.491Z,27.53
2023-02-05T09:12:01.553Z,25.62
2023-02-05T09:13:01.953Z,26.25
2023-02-05T09:14:01.561Z,24.64
2023-02-05T09:15:01.365Z,25.27
2023-02-05T09:16:01.408Z,24.57
2023-02-05T09:17:01.434Z,27.20
2023-02-05T09:18:01.311Z,26.89
2023-02-05T09:19:01.800Z,27.47
2023-02-05T09:20:01.257Z,25.13
2023-02-05T09:21:01.677Z,25.02
2023-02-05T09:22:01.609Z,25.21
2023-02-05T09:23:01.636Z,23.28
2023-02-05T09:24:01.563Z,23.99
2023-02-05T09:25:01.486Z,25.10
2023-02-05T09:26:01.205Z,25.27
2023-02-05T09:27:01.426Z,24.98
2023-02-05T09:28:01.251Z,23.56
2023-02-05T09:29:01.318Z,25.29
2023-02-05T09:30:01.349Z,23.55
2023-02-05T09:31:01.902Z,25.07
2023-02-05T09:32:01.638Z,23.35
2023-02-05T09:33:01.146Z,23.25
2023-02-05T09:34:01.599Z,23.77
2023-02-05T09:35:00.998Z,23.06
2023-02-05T09:36:01.308Z,24.71
2023-02-05T09:37:01.115Z,26.20
2023-02-05T09:38:01.196Z,25.28
2023-02-05T09:39:13.997Z,22.88
2023-02-05T09:41:01.684Z,23.99
2023-02-05T09:42:01.218Z,24.89
2023-02-05T09:43:01.170Z,24.41
2023-02-05T09:44:01.161Z,25.72
2023-02-05T09:45:01.128Z,24.00
2023-02-05T09:46:01.173Z,24.89
2023-02-05T09:47:01.182Z,24.69
2023-02-05T09:48:00.964Z,25.92
2023-02-05T09:49:01.078Z,26.61
2023-02-05T09:50:00.951Z,26.62
2023-02-05T09:51:01.061Z,26.09
2023-02-05T09:52:00.868Z,23.09
2023-02-05T09:53:01.142Z,27.46
2023-02-05T09:54:00.892Z,28.55
2023-02-05T09:55:01.076Z,27.39
2023-02-05T09:56:01.466Z,24.46
2023-02-05T09:57:01.050Z,23.35
2023-02-05T09:58:00.946Z,25.37
2023-02-05T09:59:01.396Z,23.96
2023-02-05T10:00:00.916Z,23.27
2023-02-05T10:01:01.294Z,24.29
2023-02-05T10:02:01.097Z,25.61
2023-02-05T10:03:00.981Z,26.32
2023-02-05T10:04:00.897Z,23.13
2023-02-05T10:05:00.816Z,25.59
2023-02-05T10:06:00.994Z,27.13
2023-02-05T10:07:00.824Z,29.57
2023-02-05T10:08:00.952Z,27.52
2023-02-05T10:09:00.716Z,25.62
2023-02-05T10:10:01.097Z,30.19
2023-02-05T10:11:00.743Z,26.21
2023-02-05T10:12:00.903Z,27.27
2023-02-05T10:13:00.762Z,28.47
2023-02-05T10:14:00.843Z,27.13
2023-02-05T10:15:00.724Z,26.72
2023-02-05T10:16:00.990Z,25.18
2023-02-05T10:17:00.714Z,25.78
2023-02-05T10:18:00.807Z,27.42
2023-02-05T10:19:00.827Z,27.09
2023-02-05T10:20:01.428Z,27.48
2023-02-05T10:21:00.788Z,24.41
2023-02-05T10:22:00.541Z,22.66
2023-02-05T10:23:00.751Z,23.99
2023-02-05T10:24:00.671Z,23.44
2023-02-05T10:25:00.869Z,25.68
2023-02-05T10:26:00.622Z,26.34
2023-02-05T10:27:00.803Z,27.83
2023-02-05T10:28:00.725Z,28.83
2023-02-05T10:29:00.753Z,28.63
2023-02-05T10:30:00.690Z,30.33
2023-02-05T10:31:00.784Z,29.13
2023-02-05T10:32:00.758Z,27.15
2023-02-05T10:33:00.739Z,25.93
2023-02-05T10:34:00.677Z,27.36
2023-02-05T10:35:00.432Z,27.62
2023-02-05T10:36:00.587Z,25.05
2023-02-05T10:37:00.596Z,23.91
2023-02-05T10:38:01.096Z,21.78
2023-02-05T10:39:00.506Z,23.40
2023-02-05T10:40:00.795Z,23.40
2023-02-05T10:41:00.995Z,25.52
2023-02-05T10:42:00.735Z,23.08
2023-02-05T10:43:00.384Z,25.18
2023-02-05T10:44:01.067Z,23.96
2023-02-05T10:45:00.464Z,23.97
2023-02-05T10:46:00.737Z,24.17
2023-02-05T10:47:00.948Z,23.66
2023-02-05T10:48:00.664Z,23.96
2023-02-05T10:49:00.498Z,22.89
2023-02-05T10:50:00.258Z,25.68
2023-02-05T10:51:00.517Z,26.98
2023-02-05T10:52:00.417Z,28.02
2023-02-05T10:53:00.521Z,26.64
2023-02-05T10:54:00.455Z,25.79
2023-02-05T10:55:00.461Z,25.56
2023-02-05T10:56:01.750Z,26.86
2023-02-05T10:57:00.497Z,23.39
2023-02-05T10:58:00.345Z,24.72
2023-02-05T10:59:00.961Z,24.30
2023-02-05T11:00:00.449Z,23.57
2023-02-05T11:01:00.393Z,24.27
2023-02-05T11:02:00.500Z,22.05
2023-02-05T11:03:01.448Z,24.57
2023-02-05T11:03:59.675Z,23.77
2023-02-05T11:05:00.314Z,24.40
2023-02-05T11:06:00.213Z,26.12
2023-02-05T11:07:00.424Z,25.09
2023-02-05T11:07:59.487Z,23.80
2023-02-05T11:09:00.186Z,25.68
2023-02-05T11:10:00.984Z,23.64
2023-02-05T11:11:00.204Z,24.26
2023-02-05T11:12:00.255Z,23.85
2023-02-05T11:13:00.126Z,24.89
2023-02-05T11:14:00.214Z,23.69
2023-02-05T11:15:00.276Z,24.44
2023-02-05T11:16:00.413Z,26.20
2023-02-05T11:17:00.103Z,26.78
2023-02-05T11:18:00.197Z,29.10
2023-02-05T11:19:01.390Z,30.61
2023-02-05T11:20:00.156Z,31.66
2023-02-05T11:21:00.162Z,30.59
2023-02-05T11:21:59.975Z,34.20
2023-02-05T11:23:00.224Z,34.73
2023-02-05T11:23:59.984Z,35.36
2023-02-05T11:25:00.189Z,37.95
2023-02-05T11:26:00.032Z,35.38
2023-02-05T11:27:00.131Z,37.64
2023-02-05T11:28:00.080Z,37.32
2023-02-05T11:29:00.222Z,38.45
2023-02-05T11:30:00.253Z,38.45
2023-02-05T11:31:00.944Z,38.14
2023-02-05T11:32:00.691Z,39.17
2023-02-05T11:33:00.127Z,39.20
2023-02-05T11:34:00.006Z,37.15
2023-02-05T11:35:00.055Z,37.04
2023-02-05T11:36:00.172Z,39.43
2023-02-05T11:37:00.096Z,39.51
2023-02-05T11:37:59.943Z,39.63
2023-02-05T11:39:00.060Z,39.22
2023-02-05T11:39:59.923Z,37.09
2023-02-05T11:40:59.898Z,36.73
2023-02-05T11:42:00.304Z,40.47
2023-02-05T11:42:59.886Z,39.64
2023-02-05T11:44:00.517Z,39.33
2023-02-05T11:44:59.863Z,38.32
2023-02-05T11:45:59.853Z,39.98
2023-02-05T11:46:59.874Z,40.71
2023-02-05T11:47:59.950Z,42.88
2023-02-05T11:49:00.196Z,42.65
2023-02-05T11:49:59.991Z,41.22
2023-02-05T11:50:59.934Z,42.16
2023-02-05T11:52:00.275Z,42.14
2023-02-05T11:53:00.114Z,41.50
2023-02-05T11:53:59.684Z,40.36
2023-02-05T11:55:00.044Z,40.86
2023-02-05T11:55:59.646Z,42.80
2023-02-05T11:56:59.881Z,40.22
2023-02-05T11:57:59.650Z,40.24
2023-02-05T11:58:59.975Z,41.46
2023-02-05T11:59:59.727Z,40.84
2023-02-05T12:00:59.908Z,41.15
2023-02-05T12:01:59.584Z,41.13
2023-02-05T12:03:00.013Z,42.06
2023-02-05T12:03:59.620Z,40.20
2023-02-05T12:04:59.749Z,40.10
2023-02-05T12:05:59.639Z,39.79
2023-02-05T12:06:59.926Z,40.86
2023-02-05T12:07:59.765Z,42.32
2023-02-05T12:08:59.500Z,41.71
2023-02-05T12:09:59.696Z,40.38
2023-02-05T12:10:59.609Z,41.43
2023-02-05T12:11:59.579Z,44.14
2023-02-05T12:12:59.518Z,42.90
2023-02-05T12:13:59.628Z,43.62
2023-02-05T12:14:59.459Z,43.02
2023-02-05T12:15:59.676Z,43.85
2023-02-05T12:16:59.674Z,44.06
2023-02-05T12:17:59.760Z,43.44
2023-02-05T12:18:59.530Z,43.35
2023-02-05T12:20:00.337Z,44.62
2023-02-05T12:21:00.010Z,44.18
2023-02-05T12:21:59.650Z,43.16
2023-02-05T12:22:59.461Z,43.25
2023-02-05T12:23:59.489Z,43.56
2023-02-05T12:24:59.543Z,42.32
2023-02-05T12:25:59.499Z,43.68
2023-02-05T12:26:59.638Z,43.15
2023-02-05T12:27:59.474Z,42.13
2023-02-05T12:28:59.510Z,44.51
2023-02-05T12:29:59.288Z,42.36
2023-02-05T12:30:59.529Z,44.12
2023-02-05T12:31:59.267Z,44.12
2023-02-05T12:32:59.388Z,45.13
2023-02-05T12:33:59.559Z,47.20
2023-02-05T12:34:59.417Z,45.21
2023-02-05T12:35:59.305Z,43.66
2023-02-05T12:36:59.336Z,42.94
2023-02-05T12:37:59.294Z,43.15
2023-02-05T12:39:00.535Z,43.13
2023-02-05T12:39:59.354Z,45.71
2023-02-05T12:40:59.117Z,43.23
2023-02-05T12:41:59.274Z,42.71
2023-02-05T12:42:59.144Z,42.59
2023-02-05T12:43:59.225Z,41.25
2023-02-05T12:44:59.152Z,43.93
2023-02-05T12:45:59.375Z,43.60
2023-02-05T12:46:59.176Z,44.93
2023-02-05T12:47:59.267Z,44.90
2023-02-05T12:48:59.164Z,40.98
2023-02-05T12:49:59.234Z,43.05
2023-02-05T12:50:59.178Z,41.72
2023-02-05T12:51:59.214Z,42.05
2023-02-05T12:52:59.144Z,43.29